Airfield :
LOGIN :

Register | Disclaimer

   EN    FR    IT 

 










Legend :    VFR   Marginal VFR   IFR   Intensive IFR   Very Intensive IFR
Visi :
Ceiling :
>= 8 km
>= 3000ft
5 to 8 km
1000 to 3000 ft
1500m to 5 km
500 to 1000 ft
800 to 1500m
200 to 500 ft
< 800m
< 200 ft
Symbols :   Thunderstorms  Fog  Heavy snow  Heavy precipitations  Wind > 20 kt
SIGMETs :     Misc.  Thunderstorms  Icing  Turbulence  Mountain Waves  Volcanic Ashes







- Airport Elevation : 1036 ft
- IATA code : ERF


EDDE - Erfurt

CURRENT METAR :
  • 180250Z 27009KT 9999 -SHSN SCT015 BKN021 M00/M02 Q1010 R88/790194

EXPIRED METARs :
  • 180220Z 27011KT 9999 -SHSN SCT013 SCT018CB M00/M01 Q1010 R88/790194
  • 180150Z 28009KT 9999 -SHSN SCT013 SCT020CB 00/M02 Q1009 R88/790194
  • 180120Z 26011KT 9999 FEW016 BKN040 M00/M02 Q1009 R88/790194
  • 180050Z 26012KT 9999 FEW016 BKN046 M00/M02 Q1008 R88/790194
  • 180020Z 27013KT 9999 FEW022 SCT042 M00/M02 Q1008 R88/790194

TAF TAF EDDE
Valid from the 18 at 00:00 until the 19 at 00:00 UTC


172300Z 1800/1824 27015G25KT 9999 BKN020
PROB40
TEMPO 1800/1804 30020G30KT 2500 SHSN BKN006 SCT015CB
BECMG 1800/1802 28009KT
No reported NOTAMs for that airfield.



MET'MAP, your aeronautical weather chart ! - Copyright ORBIFLY December 2007 - Disclaimer

ORBIFLY MET'MAP TEAM :

Programming & Development : Alexandra Zaïnal
Concept & Development : Baudouin d'Aumeries
Co-Development & Prog : Marc-Olivier Méhu
Technical & hardware support : Manuel Goepfert

Contact : metmap@orbifly.com




SOURCES & CREDITS :

   NOAA